createdAt,value
2023-03-13T00:02:13.161Z,-128.00
2023-03-13T00:04:42.736Z,-128.00
2023-03-13T00:07:16.119Z,-128.00
2023-03-13T00:09:53.709Z,-128.00
2023-03-13T00:12:21.592Z,-128.00
2023-03-13T00:14:51.527Z,-128.00
2023-03-13T00:17:29.262Z,-128.00
2023-03-13T00:20:01.778Z,-128.00
2023-03-13T00:22:34.767Z,-128.00
2023-03-13T00:25:07.240Z,-128.00
2023-03-13T00:27:36.378Z,-128.00
2023-03-13T00:30:06.357Z,-128.00
2023-03-13T00:32:46.300Z,-128.00
2023-03-13T00:35:15.269Z,-128.00
2023-03-13T00:37:43.374Z,-128.00
2023-03-13T00:40:14.518Z,-128.00
2023-03-13T00:42:43.735Z,-128.00
2023-03-13T00:45:13.256Z,-128.00
2023-03-13T00:47:41.959Z,-128.00
2023-03-13T00:50:11.041Z,-128.00
2023-03-13T00:52:40.770Z,-128.00
2023-03-13T00:55:10.115Z,-128.00
2023-03-13T00:57:39.093Z,-128.00
2023-03-13T01:00:08.005Z,-128.00
2023-03-13T01:02:42.005Z,-128.00
2023-03-13T01:05:13.346Z,-128.00
2023-03-13T01:07:41.464Z,-128.00
2023-03-13T01:10:10.620Z,-128.00
2023-03-13T01:12:40.878Z,-128.00
2023-03-13T01:15:10.359Z,-128.00
2023-03-13T01:17:40.312Z,-128.00
2023-03-13T01:20:09.739Z,-128.00
2023-03-13T01:22:37.706Z,-128.00
2023-03-13T01:25:12.810Z,-128.00
2023-03-13T01:27:42.977Z,-128.00
2023-03-13T01:30:11.887Z,-128.00
2023-03-13T01:32:48.945Z,-128.00
2023-03-13T01:35:19.727Z,-128.00
2023-03-13T01:37:49.471Z,-128.00
2023-03-13T01:40:17.503Z,-128.00
2023-03-13T01:42:57.518Z,-128.00
2023-03-13T01:46:02.766Z,-128.00
2023-03-13T01:48:53.394Z,-128.00
2023-03-13T01:51:27.736Z,-128.00
2023-03-13T01:53:59.886Z,-128.00
2023-03-13T01:56:57.758Z,-128.00
2023-03-13T01:59:40.795Z,-128.00
2023-03-13T02:02:10.106Z,-128.00
2023-03-13T02:04:42.864Z,-128.00
2023-03-13T02:07:15.535Z,-128.00
2023-03-13T02:09:44.214Z,-128.00
2023-03-13T02:12:14.874Z,-128.00
2023-03-13T02:14:44.849Z,-128.00
2023-03-13T02:17:13.444Z,-128.00
2023-03-13T02:19:51.827Z,-128.00
2023-03-13T02:22:30.148Z,-128.00
2023-03-13T02:25:01.851Z,-128.00
2023-03-13T02:27:30.216Z,-128.00
2023-03-13T02:29:59.120Z,-128.00
2023-03-13T02:32:28.934Z,-128.00
2023-03-13T02:35:01.921Z,-128.00
2023-03-13T02:37:30.783Z,-128.00
2023-03-13T02:40:00.739Z,-128.00
2023-03-13T02:42:33.390Z,-128.00
2023-03-13T02:45:02.005Z,-128.00
2023-03-13T02:47:30.069Z,-128.00
2023-03-13T02:49:57.944Z,-128.00
2023-03-13T02:52:37.991Z,-128.00
2023-03-13T02:55:10.914Z,-128.00
2023-03-13T02:57:38.784Z,-128.00
2023-03-13T03:00:12.526Z,-128.00
2023-03-13T03:02:40.956Z,-128.00
2023-03-13T03:05:09.756Z,-128.00
2023-03-13T03:07:38.672Z,-128.00
2023-03-13T03:10:08.656Z,-128.00
2023-03-13T03:12:38.943Z,-128.00
2023-03-13T03:15:07.730Z,-128.00
2023-03-13T03:17:37.034Z,-128.00
2023-03-13T03:20:12.015Z,-128.00
2023-03-13T03:22:42.945Z,-128.00
2023-03-13T03:25:10.839Z,-128.00
2023-03-13T03:27:39.167Z,-128.00
2023-03-13T03:30:09.666Z,-128.00
2023-03-13T03:32:38.236Z,-128.00
2023-03-13T03:35:07.174Z,-128.00
2023-03-13T03:37:35.679Z,-128.00
2023-03-13T03:40:08.081Z,-128.00
2023-03-13T03:42:36.311Z,-128.00
2023-03-13T03:45:24.123Z,-128.00
2023-03-13T03:47:59.761Z,-128.00
2023-03-13T03:50:28.282Z,-128.00
2023-03-13T03:52:59.623Z,-128.00
2023-03-13T03:55:28.027Z,-128.00
2023-03-13T03:57:56.642Z,-128.00
2023-03-13T04:00:46.819Z,-128.00
2023-03-13T04:03:15.578Z,-128.00
2023-03-13T04:05:45.277Z,-128.00
2023-03-13T04:08:14.774Z,-128.00
2023-03-13T04:10:43.091Z,-128.00
2023-03-13T04:13:12.532Z,-128.00
2023-03-13T04:15:41.120Z,-128.00
2023-03-13T04:18:12.646Z,-128.00
2023-03-13T04:20:40.832Z,-128.00
2023-03-13T04:23:09.479Z,-128.00
2023-03-13T04:25:38.780Z,-128.00
2023-03-13T04:28:10.740Z,-128.00
2023-03-13T04:30:48.399Z,-128.00
2023-03-13T04:33:49.119Z,-128.00
2023-03-13T04:36:24.722Z,-128.00
2023-03-13T04:38:52.828Z,-128.00
2023-03-13T04:41:47.736Z,-128.00
2023-03-13T04:44:34.414Z,-128.00
2023-03-13T04:47:22.131Z,-128.00
2023-03-13T04:50:09.477Z,-128.00
2023-03-13T04:53:02.215Z,-128.00
2023-03-13T04:56:08.543Z,-128.00
2023-03-13T04:58:36.532Z,-128.00
2023-03-13T05:01:30.982Z,-128.00
2023-03-13T05:04:17.419Z,-128.00
2023-03-13T05:07:03.948Z,-128.00
2023-03-13T05:09:44.385Z,-128.00
2023-03-13T05:12:33.199Z,-128.00
2023-03-13T05:15:15.425Z,-128.00
2023-03-13T05:17:45.319Z,-128.00
2023-03-13T05:20:31.738Z,-128.00
2023-03-13T05:23:19.099Z,-128.00
2023-03-13T05:26:06.942Z,-128.00
2023-03-13T05:28:39.584Z,-128.00
2023-03-13T05:31:33.913Z,-128.00
2023-03-13T05:34:22.646Z,-128.00
2023-03-13T05:37:14.112Z,-128.00
2023-03-13T05:39:45.066Z,-128.00
2023-03-13T05:42:18.663Z,-128.00
2023-03-13T05:45:13.075Z,-128.00
2023-03-13T05:48:02.619Z,-128.00
2023-03-13T05:50:40.449Z,-128.00
2023-03-13T05:53:41.088Z,-128.00
2023-03-13T05:56:29.437Z,-128.00
2023-03-13T05:59:14.941Z,-128.00
2023-03-13T06:02:01.646Z,-128.00
2023-03-13T06:04:36.522Z,-128.00
2023-03-13T06:07:05.131Z,-128.00
2023-03-13T06:09:33.894Z,-128.00
2023-03-13T06:12:02.094Z,-128.00
2023-03-13T06:14:30.706Z,-128.00
2023-03-13T06:17:26.325Z,-128.00
2023-03-13T06:19:54.921Z,-128.00
2023-03-13T06:22:25.581Z,-128.00
2023-03-13T06:24:54.747Z,-128.00
2023-03-13T06:27:22.826Z,-128.00
2023-03-13T06:29:50.933Z,-128.00
2023-03-13T06:32:19.144Z,-128.00
2023-03-13T06:34:47.746Z,-128.00
2023-03-13T06:37:15.951Z,-128.00
2023-03-13T06:39:43.906Z,-128.00
2023-03-13T06:42:11.811Z,-128.00
2023-03-13T06:44:41.654Z,-128.00
2023-03-13T06:47:09.606Z,-128.00
2023-03-13T06:49:38.067Z,-128.00
2023-03-13T06:52:12.894Z,-128.00
2023-03-13T06:54:41.661Z,-128.00
2023-03-13T06:57:09.597Z,-128.00
2023-03-13T06:59:39.205Z,-128.00
2023-03-13T07:02:08.821Z,-128.00
2023-03-13T07:04:38.870Z,-128.00
2023-03-13T07:07:06.848Z,-128.00
2023-03-13T07:09:34.902Z,-128.00
2023-03-13T07:12:03.466Z,-128.00
2023-03-13T07:14:31.796Z,-128.00
2023-03-13T07:16:59.960Z,-128.00
2023-03-13T07:19:28.112Z,-128.00
2023-03-13T07:21:57.234Z,-128.00
2023-03-13T07:24:32.233Z,-128.00
2023-03-13T07:27:07.138Z,-128.00
2023-03-13T07:29:35.733Z,-128.00
2023-03-13T07:32:06.213Z,-128.00
2023-03-13T07:34:34.274Z,-128.00
2023-03-13T07:37:02.311Z,-128.00
2023-03-13T07:39:30.435Z,-128.00
2023-03-13T07:41:58.526Z,-128.00
2023-03-13T07:44:26.548Z,-128.00
2023-03-13T07:46:54.783Z,-128.00
2023-03-13T07:49:22.657Z,-128.00
2023-03-13T07:51:51.168Z,-128.00
2023-03-13T07:54:25.122Z,-128.00
2023-03-13T07:56:53.045Z,-128.00
2023-03-13T07:59:21.204Z,-128.00
2023-03-13T08:01:49.121Z,-128.00
2023-03-13T08:04:17.104Z,-128.00
2023-03-13T08:06:47.584Z,-128.00
2023-03-13T08:09:15.883Z,-128.00
2023-03-13T08:11:46.833Z,-128.00
2023-03-13T08:14:14.981Z,-128.00
2023-03-13T08:16:44.920Z,-128.00
2023-03-13T08:19:13.044Z,-128.00
2023-03-13T08:21:41.944Z,-128.00
2023-03-13T08:24:11.366Z,-128.00
2023-03-13T08:26:41.964Z,-128.00
2023-03-13T08:29:12.232Z,-128.00
2023-03-13T08:31:51.546Z,-128.00
2023-03-13T08:34:19.714Z,-128.00
2023-03-13T08:36:48.018Z,-128.00
2023-03-13T08:39:17.294Z,-128.00
2023-03-13T08:41:45.457Z,-128.00
2023-03-13T08:44:21.271Z,-128.00
2023-03-13T08:46:49.459Z,-128.00
2023-03-13T08:49:17.884Z,-128.00
2023-03-13T08:51:45.942Z,-128.00
2023-03-13T08:54:13.966Z,-128.00
2023-03-13T08:56:43.620Z,-128.00
2023-03-13T08:59:12.769Z,-128.00
2023-03-13T09:01:40.829Z,-128.00
2023-03-13T09:04:09.139Z,-128.00
2023-03-13T09:06:37.856Z,-128.00
2023-03-13T09:09:10.548Z,-128.00
2023-03-13T09:11:42.170Z,-128.00
2023-03-13T09:14:10.364Z,-128.00
2023-03-13T09:16:38.665Z,-128.00
2023-03-13T09:19:06.822Z,-128.00
2023-03-13T09:21:40.849Z,-128.00
2023-03-13T09:24:09.014Z,-128.00
2023-03-13T09:26:37.106Z,-128.00
2023-03-13T09:29:05.522Z,-128.00
2023-03-13T09:31:34.156Z,-128.00
2023-03-13T09:34:02.542Z,-128.00
2023-03-13T09:36:31.218Z,-128.00
2023-03-13T09:38:59.608Z,-128.00
2023-03-13T09:41:55.438Z,-128.00
2023-03-13T09:44:28.421Z,-128.00
2023-03-13T09:47:02.063Z,-128.00
2023-03-13T09:49:38.885Z,-128.00
2023-03-13T09:52:18.341Z,-128.00
2023-03-13T09:55:06.079Z,-128.00
2023-03-13T09:57:35.649Z,-128.00
2023-03-13T10:00:27.902Z,-128.00
2023-03-13T10:03:14.811Z,-128.00
2023-03-13T10:05:48.852Z,-128.00
2023-03-13T10:08:23.125Z,-128.00
2023-03-13T10:11:22.710Z,-128.00
2023-03-13T10:13:56.426Z,-128.00
2023-03-13T10:16:39.165Z,-128.00
2023-03-13T10:19:17.943Z,-128.00
2023-03-13T10:21:49.759Z,-128.00
2023-03-13T10:24:31.954Z,-128.00
2023-03-13T10:27:02.405Z,-128.00
2023-03-13T10:29:31.734Z,-128.00
2023-03-13T10:32:07.054Z,-128.00
2023-03-13T10:35:00.571Z,-128.00
2023-03-13T10:37:42.536Z,-128.00
2023-03-13T10:40:13.554Z,-128.00
2023-03-13T10:42:45.816Z,-128.00
2023-03-13T10:45:22.691Z,-128.00
2023-03-13T10:47:56.173Z,-128.00
2023-03-13T10:50:25.330Z,-128.00
2023-03-13T10:52:53.630Z,-128.00
2023-03-13T10:55:25.505Z,-128.00
2023-03-13T10:58:04.109Z,-128.00
2023-03-13T11:00:32.414Z,-128.00
2023-03-13T11:03:22.028Z,-128.00
2023-03-13T11:06:03.135Z,-128.00
2023-03-13T11:08:37.929Z,-128.00
2023-03-13T11:11:19.537Z,-128.00
2023-03-13T11:13:47.431Z,-128.00
2023-03-13T11:16:22.221Z,-128.00
2023-03-13T11:19:15.117Z,-128.00
2023-03-13T11:21:47.158Z,-128.00
2023-03-13T11:24:47.442Z,-128.00
2023-03-13T11:27:35.315Z,-128.00
2023-03-13T11:30:24.652Z,-128.00
2023-03-13T11:33:02.500Z,-128.00
2023-03-13T11:35:42.826Z,-128.00
2023-03-13T11:38:34.192Z,-128.00
2023-03-13T11:41:18.648Z,-128.00
2023-03-13T11:43:58.777Z,-128.00
2023-03-13T11:46:39.909Z,-128.00
2023-03-13T11:49:20.141Z,-128.00
2023-03-13T11:52:12.001Z,-128.00
2023-03-13T11:55:00.079Z,-128.00
2023-03-13T14:11:48.721Z,5.79
2023-03-13T14:14:20.979Z,5.82
2023-03-13T14:16:50.943Z,5.89
2023-03-13T14:19:25.193Z,5.92
2023-03-13T14:22:03.475Z,5.94
2023-03-13T14:24:31.894Z,5.97
2023-03-13T14:27:00.186Z,6.03
2023-03-13T14:29:28.215Z,6.07
2023-03-13T14:31:57.915Z,6.11
2023-03-13T14:34:32.759Z,6.12
2023-03-13T14:37:17.152Z,6.14
2023-03-13T14:39:46.461Z,6.18
2023-03-13T14:42:18.239Z,6.19
2023-03-13T14:44:48.727Z,6.22
2023-03-13T14:47:16.818Z,6.23
2023-03-13T14:49:45.913Z,6.24
2023-03-13T14:52:24.760Z,6.23
2023-03-13T14:54:58.502Z,6.24
2023-03-13T14:57:27.611Z,6.23
2023-03-13T14:59:56.231Z,6.23
2023-03-13T15:02:28.088Z,6.22
2023-03-13T15:05:00.111Z,6.23
2023-03-13T15:07:42.987Z,6.24
2023-03-13T15:10:36.759Z,6.25
2023-03-13T15:13:34.350Z,6.25
2023-03-13T15:16:04.119Z,6.25
2023-03-13T15:18:34.721Z,6.27
2023-03-13T15:21:17.312Z,6.27
2023-03-13T15:23:53.939Z,6.26
2023-03-13T15:26:22.623Z,6.26
2023-03-13T15:28:51.104Z,6.27
2023-03-13T15:31:19.101Z,6.27
2023-03-13T15:33:47.135Z,6.26
2023-03-13T15:36:21.534Z,6.25
2023-03-13T15:38:51.681Z,6.25
2023-03-13T15:41:20.685Z,6.23
2023-03-13T15:43:52.842Z,6.25
2023-03-13T15:46:21.061Z,6.24
2023-03-13T15:48:51.390Z,6.25
2023-03-13T15:51:21.012Z,6.25
2023-03-13T15:53:49.088Z,6.24
2023-03-13T15:56:23.029Z,6.23
2023-03-13T15:58:51.446Z,6.22
2023-03-13T16:01:19.613Z,6.22
2023-03-13T16:03:49.441Z,6.21
2023-03-13T16:06:21.402Z,6.20
2023-03-13T16:08:49.602Z,6.18
2023-03-13T16:11:17.664Z,6.19
2023-03-13T16:13:47.481Z,6.17
2023-03-13T16:16:21.327Z,6.16
2023-03-13T16:18:50.057Z,6.14
2023-03-13T16:21:23.281Z,6.12
2023-03-13T16:23:51.269Z,6.11
2023-03-13T16:26:21.609Z,6.09
2023-03-13T16:28:50.128Z,6.07
2023-03-13T16:31:27.703Z,6.07
2023-03-13T16:33:57.036Z,6.07
2023-03-13T16:36:28.363Z,6.08
2023-03-13T16:38:56.287Z,6.08
2023-03-13T16:41:25.364Z,6.07
2023-03-13T16:43:54.817Z,6.08
2023-03-13T16:46:25.712Z,6.06
2023-03-13T16:48:53.649Z,6.06
2023-03-13T16:51:26.775Z,6.07
2023-03-13T16:53:56.798Z,6.05
2023-03-13T16:56:30.933Z,6.03
2023-03-13T16:59:00.815Z,6.02
2023-03-13T17:01:30.132Z,6.02
2023-03-13T17:03:58.443Z,6.00
2023-03-13T17:06:28.350Z,6.00
2023-03-13T17:09:02.150Z,5.98
2023-03-13T17:11:31.116Z,5.96
2023-03-13T17:13:59.812Z,5.94
2023-03-13T17:16:33.009Z,5.93
2023-03-13T17:19:02.187Z,5.90
2023-03-13T17:21:32.182Z,5.89
2023-03-13T17:24:03.229Z,5.86
2023-03-13T17:26:36.623Z,5.82
2023-03-13T17:29:05.558Z,5.80
2023-03-13T17:31:37.591Z,5.78
2023-03-13T17:34:10.419Z,5.75
2023-03-13T17:36:40.165Z,5.73
2023-03-13T17:39:10.757Z,5.71
2023-03-13T17:41:39.655Z,5.69
2023-03-13T17:44:07.786Z,5.68
2023-03-13T17:46:43.303Z,5.66
2023-03-13T17:49:16.638Z,5.65
2023-03-13T17:51:46.298Z,5.63
2023-03-13T17:54:15.874Z,5.62
2023-03-13T17:56:44.650Z,5.61
2023-03-13T17:59:17.735Z,5.60
2023-03-13T18:01:46.116Z,5.60
2023-03-13T18:04:20.646Z,5.59
2023-03-13T18:06:50.500Z,5.58
2023-03-13T18:09:20.928Z,5.58
2023-03-13T18:11:49.816Z,5.59
2023-03-13T18:14:19.847Z,5.58
2023-03-13T18:16:48.887Z,5.56
2023-03-13T18:19:20.538Z,5.55
2023-03-13T18:21:53.637Z,5.54
2023-03-13T18:24:27.769Z,5.52
2023-03-13T18:26:55.947Z,5.51
2023-03-13T18:29:29.117Z,5.50
2023-03-13T18:31:58.951Z,5.50
2023-03-13T18:34:27.433Z,5.49
2023-03-13T18:36:55.971Z,5.48
2023-03-13T18:39:25.359Z,5.48
2023-03-13T18:41:53.402Z,5.47
2023-03-13T18:44:21.698Z,5.46
2023-03-13T18:46:51.315Z,5.44
2023-03-13T18:49:21.941Z,5.43
2023-03-13T18:51:51.336Z,5.37
2023-03-13T18:54:19.597Z,5.38
2023-03-13T18:56:47.882Z,5.34
2023-03-13T18:59:20.835Z,5.29
2023-03-13T19:01:48.824Z,5.27
2023-03-13T19:04:17.336Z,5.24
2023-03-13T19:06:46.110Z,5.22
2023-03-13T19:09:42.103Z,5.21
2023-03-13T19:12:11.034Z,5.21
2023-03-13T19:14:39.271Z,5.22
2023-03-13T19:17:18.549Z,5.21
2023-03-13T19:19:48.104Z,5.20
2023-03-13T19:22:16.597Z,5.20
2023-03-13T19:24:44.969Z,5.17
2023-03-13T19:27:17.479Z,5.17
2023-03-13T19:29:46.082Z,5.16
2023-03-13T19:32:15.423Z,5.15
2023-03-13T19:34:44.451Z,5.14
2023-03-13T19:37:14.075Z,5.13
2023-03-13T19:39:42.786Z,5.11
2023-03-13T19:42:10.901Z,5.09
2023-03-13T19:44:44.325Z,5.07
2023-03-13T19:47:14.622Z,5.05
2023-03-13T19:49:43.125Z,5.04
2023-03-13T19:52:11.070Z,5.01
2023-03-13T19:54:39.169Z,5.00
2023-03-13T19:57:11.376Z,4.99
2023-03-13T19:59:40.154Z,4.98
2023-03-13T20:02:10.215Z,4.96
2023-03-13T20:04:39.617Z,4.95
2023-03-13T20:07:08.325Z,4.93
2023-03-13T20:09:36.930Z,4.90
2023-03-13T20:12:05.752Z,4.87
2023-03-13T20:14:34.444Z,4.86
2023-03-13T20:17:03.833Z,4.85
2023-03-13T20:19:32.154Z,4.84
2023-03-13T20:22:03.760Z,4.83
2023-03-13T20:24:36.347Z,4.82
2023-03-13T20:27:06.446Z,4.79
2023-03-13T20:29:35.730Z,4.78
2023-03-13T20:32:06.002Z,4.77
2023-03-13T20:34:38.271Z,4.76
2023-03-13T20:37:06.588Z,4.75
2023-03-13T20:39:37.498Z,4.74
2023-03-13T20:42:10.308Z,4.72
2023-03-13T20:44:38.534Z,4.70
2023-03-13T20:47:06.643Z,4.67
2023-03-13T20:49:34.881Z,4.64
2023-03-13T20:52:04.763Z,4.62
2023-03-13T20:54:34.074Z,4.61
2023-03-13T20:57:02.457Z,4.57
2023-03-13T20:59:31.848Z,4.56
2023-03-13T21:02:00.496Z,4.56
2023-03-13T21:04:28.880Z,4.54
2023-03-13T21:07:04.561Z,4.53
2023-03-13T21:09:36.626Z,4.52
2023-03-13T21:12:05.394Z,4.51
2023-03-13T21:14:35.147Z,4.50
2023-03-13T21:17:06.200Z,4.48
2023-03-13T21:19:37.230Z,4.49
2023-03-13T21:22:05.124Z,4.50
2023-03-13T21:24:33.270Z,4.49
2023-03-13T21:27:01.314Z,4.49
2023-03-13T21:29:37.129Z,4.49
2023-03-13T21:32:05.602Z,4.48
2023-03-13T21:34:33.817Z,4.42
2023-03-13T21:37:02.161Z,4.40
2023-03-13T21:39:30.428Z,4.39
2023-03-13T21:41:59.979Z,4.36
2023-03-13T21:44:28.402Z,4.35
2023-03-13T21:46:56.548Z,4.35
2023-03-13T21:49:24.670Z,4.36
2023-03-13T21:51:52.636Z,4.34
2023-03-13T21:54:20.648Z,4.35
2023-03-13T21:56:48.842Z,4.35
2023-03-13T21:59:18.019Z,4.34
2023-03-13T22:01:46.401Z,4.33
2023-03-13T22:04:14.500Z,4.31
2023-03-13T22:06:45.028Z,4.30
2023-03-13T22:09:13.803Z,4.29
2023-03-13T22:11:47.372Z,4.29
2023-03-13T22:14:16.836Z,4.29
2023-03-13T22:16:44.905Z,4.27
2023-03-13T22:19:19.220Z,4.27
2023-03-13T22:21:47.626Z,4.27
2023-03-13T22:24:15.662Z,4.26
2023-03-13T22:26:43.591Z,4.26
2023-03-13T22:29:11.694Z,4.25
2023-03-13T22:31:39.660Z,4.25
2023-03-13T22:34:07.584Z,4.24
2023-03-13T22:36:35.548Z,4.24
2023-03-13T22:39:03.659Z,4.22
2023-03-13T22:41:31.808Z,4.20
2023-03-13T22:43:59.863Z,4.20
2023-03-13T22:46:28.114Z,4.20
2023-03-13T22:48:56.009Z,4.20
2023-03-13T22:51:24.081Z,4.19
2023-03-13T22:53:52.020Z,4.18
2023-03-13T22:56:20.004Z,4.17
2023-03-13T22:58:48.862Z,4.17
2023-03-13T23:01:18.483Z,4.17
2023-03-13T23:03:46.898Z,4.18
2023-03-13T23:06:19.522Z,4.18
2023-03-13T23:08:47.618Z,4.19
2023-03-13T23:11:16.073Z,4.19
2023-03-13T23:13:48.463Z,4.19
2023-03-13T23:16:16.685Z,4.20
2023-03-13T23:18:45.077Z,4.21
2023-03-13T23:21:16.618Z,4.21
2023-03-13T23:23:47.324Z,4.21
2023-03-13T23:26:15.543Z,4.23
2023-03-13T23:28:47.238Z,4.22
2023-03-13T23:31:17.193Z,4.22
2023-03-13T23:33:47.722Z,4.22
2023-03-13T23:36:17.817Z,4.22
2023-03-13T23:38:49.245Z,4.22
2023-03-13T23:41:17.632Z,4.24
2023-03-13T23:43:45.613Z,4.25
2023-03-13T23:46:17.685Z,4.25
2023-03-13T23:48:45.886Z,4.25
2023-03-13T23:51:13.846Z,4.23
2023-03-13T23:53:44.094Z,4.23
2023-03-13T23:56:13.664Z,4.22
2023-03-13T23:58:41.766Z,4.22
